New Egypt, New Jersey
Current Conditions -  °F | °C
As of 12:48 AM on Tuesday 27 Jan 2015 (Local Time) from KWRI Reporting Station
Light Snow Light Snow  
Wind Chill: 11°   Ceiling: 1800
Heat Index: 25°   Visibility: 4mi
Dew Point: 21°   Wind: 17mph
Humidity: 86%   Direction: 360°N
Pressure: 29.64"   Gusts: NA
Location:  40.07°N, 74.53°W
Report Text: KWRI 270548Z AUTO 36015KT 4SM R06/4000FT -SN BR SCT013 OVC018 M04/M06 A2964 RMK AO2
Loading
Personal Weather Stations






























Interactive Weather Map New forecast layout! Learn more

10-Day Weather Forecast

Advertisements
Track Severe Weather on mobile